createdAt,value
2018-08-17T00:00:55.067Z,7.50
2018-08-17T00:01:55.108Z,7.90
2018-08-17T00:02:55.153Z,7.50
2018-08-17T00:03:55.190Z,7.90
2018-08-17T00:04:55.230Z,8.00
2018-08-17T00:05:55.322Z,7.60
2018-08-17T00:06:55.314Z,7.80
2018-08-17T00:07:55.351Z,8.10
2018-08-17T00:08:55.391Z,8.70
2018-08-17T00:09:55.431Z,7.60
2018-08-17T00:10:55.481Z,7.60
2018-08-17T00:11:55.511Z,9.80
2018-08-17T00:12:55.554Z,8.30
2018-08-17T00:13:55.595Z,7.90
2018-08-17T00:14:55.635Z,9.60
2018-08-17T00:15:55.674Z,7.90
2018-08-17T00:16:55.714Z,7.80
2018-08-17T00:17:55.755Z,8.00
2018-08-17T00:18:55.804Z,8.00
2018-08-17T00:19:55.835Z,7.80
2018-08-17T00:20:55.876Z,8.10
2018-08-17T00:21:55.915Z,8.00
2018-08-17T00:22:55.956Z,8.30
2018-08-17T00:23:56.003Z,8.00
2018-08-17T00:24:56.036Z,9.30
2018-08-17T00:25:56.074Z,8.00
2018-08-17T00:26:56.116Z,8.80
2018-08-17T00:27:56.158Z,8.50
2018-08-17T00:28:56.196Z,8.60
2018-08-17T00:29:56.236Z,8.00
2018-08-17T00:30:56.276Z,8.60
2018-08-17T00:31:56.317Z,8.40
2018-08-17T00:32:56.355Z,8.20
2018-08-17T00:33:56.397Z,8.00
2018-08-17T00:34:56.437Z,8.40
2018-08-17T00:35:56.477Z,8.10
2018-08-17T00:36:56.518Z,8.20
2018-08-17T00:37:56.561Z,8.50
2018-08-17T00:38:56.597Z,8.40
2018-08-17T00:39:56.636Z,9.20
2018-08-17T00:40:56.679Z,7.70
2018-08-17T00:41:56.718Z,7.90
2018-08-17T00:42:56.767Z,8.50
2018-08-17T00:43:56.799Z,7.80
2018-08-17T00:44:56.842Z,8.30
2018-08-17T00:45:56.877Z,7.90
2018-08-17T00:46:56.968Z,8.90
2018-08-17T00:47:56.979Z,8.90
2018-08-17T00:48:57.000Z,8.00
2018-08-17T00:49:57.038Z,8.70
2018-08-17T00:50:57.078Z,8.90
2018-08-17T00:51:57.120Z,8.40
2018-08-17T00:52:57.158Z,9.40
2018-08-17T00:53:57.198Z,8.70
2018-08-17T00:54:57.238Z,8.00
2018-08-17T00:55:57.280Z,9.90
2018-08-17T00:56:57.319Z,9.60
2018-08-17T00:57:57.359Z,8.90
2018-08-17T00:58:57.397Z,8.30
2018-08-17T00:59:57.437Z,9.00
2018-08-17T01:00:57.481Z,8.50
2018-08-17T01:01:57.517Z,8.70
2018-08-17T01:02:57.557Z,8.80
2018-08-17T01:03:57.600Z,9.00
2018-08-17T01:04:57.636Z,9.80
2018-08-17T01:05:57.677Z,8.50
2018-08-17T01:06:57.717Z,8.80
2018-08-17T01:07:57.755Z,8.40
2018-08-17T01:08:57.797Z,8.40
2018-08-17T01:09:57.847Z,8.60
2018-08-17T01:10:57.878Z,8.70
2018-08-17T01:11:57.915Z,9.00
2018-08-17T01:12:58.005Z,9.30
2018-08-17T01:13:57.999Z,9.90
2018-08-17T01:14:58.036Z,9.40
2018-08-17T01:15:58.076Z,9.20
2018-08-17T01:16:58.117Z,10.40
2018-08-17T01:17:58.154Z,9.50
2018-08-17T01:18:58.195Z,9.40
2018-08-17T01:19:58.233Z,9.90
2018-08-17T01:20:58.275Z,9.10
2018-08-17T01:21:58.313Z,8.70
2018-08-17T01:22:58.354Z,8.70
2018-08-17T01:23:58.392Z,10.20
2018-08-17T01:24:58.432Z,8.60
2018-08-17T01:25:58.472Z,8.50
2018-08-17T01:26:58.513Z,8.70
2018-08-17T01:27:58.554Z,8.80
2018-08-17T01:28:58.590Z,8.90
2018-08-17T01:29:58.630Z,8.60
2018-08-17T01:30:58.671Z,8.70
2018-08-17T01:31:58.709Z,8.90
2018-08-17T01:32:58.751Z,8.80
2018-08-17T01:33:58.790Z,9.60
2018-08-17T01:34:58.831Z,9.40
2018-08-17T01:35:58.871Z,9.70
2018-08-17T01:36:58.910Z,9.50
2018-08-17T01:37:58.950Z,8.90
2018-08-17T01:38:58.991Z,11.10
2018-08-17T01:39:59.029Z,9.90
2018-08-17T01:40:59.068Z,9.70
2018-08-17T01:41:59.108Z,9.70
2018-08-17T01:42:59.147Z,9.30
2018-08-17T01:43:59.188Z,9.50
2018-08-17T01:44:59.229Z,9.80
2018-08-17T01:45:59.268Z,9.70
2018-08-17T01:46:59.309Z,9.60
2018-08-17T01:47:59.348Z,10.20
2018-08-17T01:48:59.395Z,10.40
2018-08-17T01:49:59.428Z,9.60
2018-08-17T01:50:59.464Z,10.00
2018-08-17T01:51:59.505Z,10.40
2018-08-17T01:52:59.546Z,9.80
2018-08-17T01:53:59.587Z,9.70
2018-08-17T01:54:59.647Z,9.10
2018-08-17T01:55:59.665Z,9.60
2018-08-17T01:56:59.705Z,10.60
2018-08-17T01:57:59.743Z,9.50
2018-08-17T01:58:59.784Z,9.00
2018-08-17T01:59:59.823Z,9.40
2018-08-17T02:00:59.862Z,9.30
2018-08-17T02:01:59.902Z,9.30
2018-08-17T02:02:59.944Z,9.20
2018-08-17T02:03:59.982Z,9.60
2018-08-17T02:05:00.023Z,9.80
2018-08-17T02:06:00.063Z,8.90
2018-08-17T02:07:00.102Z,8.70
2018-08-17T02:08:00.141Z,8.70
2018-08-17T02:09:00.181Z,9.30
2018-08-17T02:10:00.225Z,10.10
2018-08-17T02:11:00.261Z,9.00
2018-08-17T02:12:00.298Z,9.00
2018-08-17T02:13:00.338Z,9.70
2018-08-17T02:14:00.389Z,9.30
2018-08-17T02:15:00.418Z,9.20
2018-08-17T02:16:00.457Z,9.20
2018-08-17T02:17:00.545Z,9.30
2018-08-17T02:18:00.548Z,9.50
2018-08-17T02:19:00.578Z,10.90
2018-08-17T02:20:00.616Z,10.30
2018-08-17T02:21:00.660Z,10.10
2018-08-17T02:22:00.697Z,10.70
2018-08-17T02:23:00.737Z,10.40
2018-08-17T02:24:00.776Z,10.50
2018-08-17T02:25:00.816Z,10.70
2018-08-17T02:26:00.855Z,10.50
2018-08-17T02:27:00.895Z,10.60
2018-08-17T02:28:00.933Z,10.00
2018-08-17T02:29:00.973Z,11.90
2018-08-17T02:30:01.013Z,10.10
2018-08-17T02:31:01.052Z,10.30
2018-08-17T02:32:01.091Z,10.50
2018-08-17T02:33:01.132Z,11.10
2018-08-17T02:34:01.177Z,10.50
2018-08-17T02:35:01.212Z,11.50
2018-08-17T02:36:01.253Z,11.70
2018-08-17T02:37:01.291Z,11.20
2018-08-17T02:38:01.340Z,11.10
2018-08-17T02:39:01.371Z,11.00
2018-08-17T02:40:01.413Z,11.20
2018-08-17T02:41:01.451Z,11.20
2018-08-17T02:42:01.491Z,11.30
2018-08-17T02:43:01.529Z,11.00
2018-08-17T02:44:01.572Z,10.60
2018-08-17T02:45:01.609Z,11.20
2018-08-17T02:46:01.651Z,11.40
2018-08-17T02:47:01.687Z,10.90
2018-08-17T02:48:01.730Z,10.00
2018-08-17T02:49:01.769Z,10.50
2018-08-17T02:50:01.807Z,10.30
2018-08-17T02:51:01.845Z,10.40
2018-08-17T02:52:01.888Z,9.90
2018-08-17T02:53:01.927Z,10.10
2018-08-17T02:54:01.975Z,10.70
2018-08-17T02:55:02.004Z,10.50
2018-08-17T02:56:02.147Z,9.80
2018-08-17T02:57:02.101Z,10.20
2018-08-17T02:58:02.131Z,10.70
2018-08-17T02:59:02.163Z,10.50
2018-08-17T03:00:02.199Z,12.90
2018-08-17T03:01:02.240Z,10.60
2018-08-17T03:02:02.281Z,11.70
2018-08-17T03:03:02.320Z,11.40
2018-08-17T03:04:02.359Z,10.50
2018-08-17T03:05:02.397Z,11.00
2018-08-17T03:06:02.437Z,11.10
2018-08-17T03:07:02.477Z,11.40
2018-08-17T03:08:02.517Z,11.10
2018-08-17T03:09:02.568Z,10.40
2018-08-17T03:10:02.595Z,10.90
2018-08-17T03:11:02.638Z,11.10
2018-08-17T03:12:02.673Z,10.30
2018-08-17T03:13:02.716Z,10.00
2018-08-17T03:14:02.756Z,10.30
2018-08-17T03:15:02.793Z,9.80
2018-08-17T03:16:02.834Z,10.00
2018-08-17T03:17:02.870Z,10.00
2018-08-17T03:18:02.912Z,11.00
2018-08-17T03:19:02.953Z,12.40
2018-08-17T03:20:02.990Z,10.90
2018-08-17T03:21:03.030Z,10.40
2018-08-17T03:22:03.085Z,10.00
2018-08-17T03:23:03.110Z,10.10
2018-08-17T03:24:03.148Z,10.60
2018-08-17T03:25:03.189Z,10.60
2018-08-17T03:26:03.232Z,10.70
2018-08-17T03:27:03.268Z,10.40
2018-08-17T03:28:03.315Z,10.90
2018-08-17T03:29:03.345Z,10.50
2018-08-17T03:30:03.385Z,10.80
2018-08-17T03:31:03.426Z,10.20
2018-08-17T03:32:03.462Z,11.00
2018-08-17T03:33:03.514Z,11.30
2018-08-17T03:34:03.542Z,11.20
2018-08-17T03:35:03.583Z,10.70
2018-08-17T03:36:03.629Z,11.30
2018-08-17T03:37:03.662Z,11.40
2018-08-17T03:38:03.750Z,11.70
2018-08-17T03:39:03.740Z,10.80
2018-08-17T03:40:03.780Z,11.70
2018-08-17T03:41:03.819Z,11.60
2018-08-17T03:42:03.860Z,11.80
2018-08-17T03:43:03.902Z,12.10
2018-08-17T03:44:03.945Z,12.00
2018-08-17T03:45:03.975Z,11.60
2018-08-17T03:46:04.016Z,12.20
2018-08-17T03:47:04.056Z,11.10
2018-08-17T03:48:04.094Z,11.90
2018-08-17T03:49:04.135Z,11.90
2018-08-17T03:50:04.274Z,11.50
2018-08-17T03:51:04.213Z,12.00
2018-08-17T03:52:04.255Z,12.10
2018-08-17T03:53:04.290Z,11.30
2018-08-17T03:54:04.330Z,11.50
2018-08-17T03:55:04.370Z,11.20
2018-08-17T03:56:04.408Z,11.10
2018-08-17T03:57:04.449Z,12.10
2018-08-17T03:58:04.488Z,11.30
2018-08-17T03:59:04.531Z,11.50
2018-08-17T04:00:04.567Z,10.90
2018-08-17T04:01:04.607Z,11.00
2018-08-17T04:02:04.645Z,11.80
2018-08-17T04:03:04.684Z,12.50
2018-08-17T04:04:04.775Z,13.20
2018-08-17T04:05:04.762Z,12.20
2018-08-17T04:06:04.806Z,11.60
2018-08-17T04:07:04.843Z,12.00
2018-08-17T04:08:04.882Z,12.00
2018-08-17T04:09:04.920Z,12.10
2018-08-17T04:10:04.960Z,12.00
2018-08-17T04:11:05.005Z,12.30
2018-08-17T04:12:05.039Z,11.50
2018-08-17T04:13:05.078Z,11.70
2018-08-17T04:14:05.116Z,11.20
2018-08-17T04:15:05.156Z,11.70
2018-08-17T04:16:05.297Z,10.90
2018-08-17T04:17:05.235Z,12.70
2018-08-17T04:18:05.274Z,10.80
2018-08-17T04:19:05.339Z,11.90
2018-08-17T04:20:05.351Z,12.30
2018-08-17T04:21:05.393Z,12.90
2018-08-17T04:22:05.431Z,12.20
2018-08-17T04:23:05.472Z,12.70
2018-08-17T04:24:05.509Z,13.10
2018-08-17T04:25:05.553Z,12.00
2018-08-17T04:26:05.588Z,11.60
2018-08-17T04:27:05.628Z,12.00
2018-08-17T04:28:05.667Z,12.60
2018-08-17T04:29:05.705Z,11.60
2018-08-17T04:30:05.795Z,11.60
2018-08-17T04:31:05.784Z,11.80
2018-08-17T04:32:05.823Z,12.60
2018-08-17T04:33:06.113Z,11.30
2018-08-17T04:34:06.091Z,13.10
2018-08-17T04:35:06.208Z,12.20
2018-08-17T04:36:06.481Z,11.50
2018-08-17T04:37:06.028Z,12.00
2018-08-17T04:38:06.063Z,11.50
2018-08-17T04:39:06.106Z,11.80
2018-08-17T04:40:06.154Z,12.40
2018-08-17T04:41:06.178Z,12.20
2018-08-17T04:42:06.217Z,12.50
2018-08-17T04:43:06.256Z,13.70
2018-08-17T04:44:06.299Z,11.50
2018-08-17T04:45:06.335Z,13.10
2018-08-17T04:46:06.395Z,11.90
2018-08-17T04:47:06.414Z,12.60
2018-08-17T04:48:06.454Z,13.10
2018-08-17T04:49:06.501Z,12.90
2018-08-17T04:50:06.531Z,12.50
2018-08-17T04:51:06.573Z,12.30
2018-08-17T04:52:06.615Z,12.50
2018-08-17T04:53:06.649Z,13.40
2018-08-17T04:54:06.691Z,13.20
2018-08-17T04:55:06.732Z,12.20
2018-08-17T04:56:06.768Z,14.90
2018-08-17T04:57:06.806Z,12.70
2018-08-17T04:58:06.848Z,13.20
2018-08-17T04:59:06.886Z,14.30
2018-08-17T05:00:06.925Z,15.60
2018-08-17T05:01:06.965Z,14.20
2018-08-17T05:02:07.008Z,13.70
2018-08-17T05:03:07.048Z,13.40
2018-08-17T05:04:07.092Z,14.00
2018-08-17T05:05:07.121Z,12.00
2018-08-17T05:06:07.161Z,13.00
2018-08-17T05:07:07.200Z,13.00
2018-08-17T05:08:07.240Z,12.90
2018-08-17T05:09:07.336Z,13.30
2018-08-17T05:10:07.326Z,12.50
2018-08-17T05:11:07.359Z,12.50
2018-08-17T05:12:07.397Z,12.70
2018-08-17T05:13:07.438Z,13.10
2018-08-17T05:14:07.479Z,11.80
2018-08-17T05:15:07.516Z,12.20
2018-08-17T05:16:07.558Z,12.30
2018-08-17T05:17:07.600Z,12.30
2018-08-17T05:18:07.637Z,12.10
2018-08-17T05:19:07.676Z,11.90
2018-08-17T05:20:07.718Z,11.90
2018-08-17T05:21:07.755Z,11.20
2018-08-17T05:22:07.798Z,13.00
2018-08-17T05:23:07.837Z,13.20
2018-08-17T05:24:07.882Z,11.20
2018-08-17T05:25:07.919Z,12.30
2018-08-17T05:26:07.955Z,11.40
2018-08-17T05:27:07.995Z,11.70
2018-08-17T05:28:08.034Z,12.00
2018-08-17T05:29:08.071Z,11.50
2018-08-17T05:30:08.113Z,12.20
2018-08-17T05:31:08.155Z,12.50
2018-08-17T05:32:08.192Z,11.70
2018-08-17T05:33:08.232Z,13.00
2018-08-17T05:34:08.272Z,15.20
2018-08-17T05:35:08.320Z,13.00
2018-08-17T05:36:08.351Z,12.40
2018-08-17T05:37:08.390Z,13.40
2018-08-17T05:38:08.430Z,12.80
2018-08-17T05:39:08.471Z,12.30
2018-08-17T05:40:08.509Z,13.30
2018-08-17T05:41:08.551Z,13.00
2018-08-17T05:42:08.592Z,12.60
2018-08-17T05:43:08.638Z,12.50
2018-08-17T05:44:08.668Z,14.70
2018-08-17T05:45:08.815Z,12.70
2018-08-17T05:46:08.754Z,12.60
2018-08-17T05:47:08.789Z,13.10
2018-08-17T05:48:08.829Z,12.40
2018-08-17T05:49:08.868Z,12.60
2018-08-17T05:50:08.907Z,12.10
2018-08-17T05:51:08.947Z,12.60
2018-08-17T05:52:08.989Z,12.00
2018-08-17T05:53:09.028Z,12.10
2018-08-17T05:54:09.069Z,12.60
2018-08-17T05:55:09.107Z,12.20
2018-08-17T05:56:09.146Z,12.00
2018-08-17T05:57:09.188Z,12.20
2018-08-17T05:58:09.224Z,12.10
2018-08-17T05:59:09.265Z,13.20
2018-08-17T06:00:09.304Z,12.80
2018-08-17T06:01:09.351Z,12.30
2018-08-17T06:02:09.386Z,12.00
2018-08-17T06:03:09.428Z,12.30
2018-08-17T06:04:09.463Z,14.20
2018-08-17T06:05:09.504Z,12.10
2018-08-17T06:06:09.542Z,11.60
2018-08-17T06:07:09.584Z,12.40
2018-08-17T06:08:09.623Z,12.40
2018-08-17T06:09:09.662Z,14.60
2018-08-17T06:10:09.703Z,11.90
2018-08-17T06:11:09.937Z,12.90
2018-08-17T06:12:09.789Z,11.90
2018-08-17T06:13:09.822Z,12.60
2018-08-17T06:14:09.863Z,12.50
2018-08-17T06:15:09.904Z,12.20
2018-08-17T06:16:09.944Z,12.20
2018-08-17T06:17:09.993Z,13.90
2018-08-17T06:18:10.023Z,12.20
2018-08-17T06:19:10.102Z,13.90
2018-08-17T06:20:10.111Z,12.90
2018-08-17T06:21:10.146Z,14.00
2018-08-17T06:22:10.184Z,14.40
2018-08-17T06:23:10.225Z,12.10
2018-08-17T06:24:10.266Z,13.30
2018-08-17T06:25:10.305Z,14.40
2018-08-17T06:26:10.345Z,12.30
2018-08-17T06:27:10.393Z,14.20
2018-08-17T06:28:10.425Z,13.40
2018-08-17T06:29:10.466Z,12.30
2018-08-17T06:30:10.512Z,12.40
2018-08-17T06:31:10.546Z,17.80
2018-08-17T06:32:10.594Z,13.10
2018-08-17T06:33:10.631Z,15.00
2018-08-17T06:34:10.675Z,14.80
2018-08-17T06:35:10.709Z,12.60
2018-08-17T06:36:10.783Z,12.60
2018-08-17T06:37:10.831Z,12.90
2018-08-17T06:38:10.828Z,12.30
2018-08-17T06:39:10.876Z,11.80
2018-08-17T06:40:10.915Z,11.80
2018-08-17T06:41:10.954Z,12.50
2018-08-17T06:42:10.991Z,15.10
2018-08-17T06:43:11.033Z,12.40
2018-08-17T06:44:11.073Z,13.80
2018-08-17T06:45:11.121Z,15.20
2018-08-17T06:46:11.157Z,13.90
2018-08-17T06:47:11.196Z,14.10
2018-08-17T06:48:11.237Z,14.80
2018-08-17T06:49:11.278Z,13.30
2018-08-17T06:50:11.319Z,12.80
2018-08-17T06:51:11.461Z,13.20
2018-08-17T06:52:11.399Z,15.10
2018-08-17T06:53:11.441Z,16.40
2018-08-17T06:54:11.485Z,14.10
2018-08-17T06:55:11.522Z,16.20
2018-08-17T06:56:11.565Z,16.10
2018-08-17T06:57:11.681Z,16.40
2018-08-17T06:58:11.645Z,15.20
2018-08-17T06:59:11.688Z,13.90
2018-08-17T07:00:11.728Z,17.00
2018-08-17T07:01:11.784Z,15.90
2018-08-17T07:02:11.808Z,16.10
2018-08-17T07:03:11.849Z,16.00
2018-08-17T07:04:11.900Z,13.70
2018-08-17T07:05:11.932Z,14.60
2018-08-17T07:06:11.974Z,16.80
2018-08-17T07:07:12.016Z,12.10
2018-08-17T07:08:12.062Z,12.90
2018-08-17T07:09:12.293Z,13.80
2018-08-17T07:10:12.138Z,12.40
2018-08-17T07:11:12.184Z,12.50
2018-08-17T07:12:12.219Z,12.30
2018-08-17T07:13:12.264Z,12.90
2018-08-17T07:14:12.302Z,12.60
2018-08-17T07:15:12.345Z,12.60
2018-08-17T07:16:12.385Z,13.10
2018-08-17T07:17:12.433Z,13.10
2018-08-17T07:18:12.469Z,13.30
2018-08-17T07:19:12.511Z,12.70
2018-08-17T07:20:12.551Z,12.70
2018-08-17T07:21:12.593Z,13.70
2018-08-17T07:22:12.636Z,12.60
2018-08-17T07:23:12.684Z,14.60
2018-08-17T07:24:12.820Z,13.00
2018-08-17T07:25:12.759Z,14.10
2018-08-17T07:26:12.802Z,12.70
2018-08-17T07:27:12.842Z,13.10
2018-08-17T07:28:13.037Z,13.60
2018-08-17T07:29:12.931Z,13.20
2018-08-17T07:30:12.969Z,13.50
2018-08-17T07:31:13.008Z,12.30
2018-08-17T07:32:13.072Z,13.30
2018-08-17T07:33:13.091Z,11.80
2018-08-17T07:34:13.136Z,12.10
2018-08-17T07:35:13.176Z,13.50
2018-08-17T07:36:13.216Z,11.60
2018-08-17T07:37:13.259Z,12.30
2018-08-17T07:38:13.300Z,11.70
2018-08-17T07:39:13.342Z,14.00
2018-08-17T07:40:13.382Z,12.30
2018-08-17T07:41:13.424Z,12.00
2018-08-17T07:42:13.466Z,13.50
2018-08-17T07:43:13.508Z,12.60
2018-08-17T07:44:13.554Z,12.90
2018-08-17T07:45:13.642Z,11.90
2018-08-17T07:46:13.637Z,12.60
2018-08-17T07:47:13.747Z,13.70
2018-08-17T07:48:13.936Z,12.50
2018-08-17T07:49:13.760Z,11.90
2018-08-17T07:50:13.809Z,13.70
2018-08-17T07:51:13.844Z,13.30
2018-08-17T07:52:13.893Z,13.80
2018-08-17T07:53:13.928Z,13.20
2018-08-17T07:54:13.973Z,13.50
2018-08-17T07:55:14.016Z,14.00
2018-08-17T07:56:14.053Z,14.40
2018-08-17T07:57:14.094Z,15.30
2018-08-17T07:58:14.136Z,12.80
2018-08-17T07:59:14.181Z,12.50
2018-08-17T08:00:14.221Z,12.80
2018-08-17T08:01:14.264Z,12.20
2018-08-17T08:02:14.310Z,12.20
2018-08-17T08:03:14.348Z,12.00
2018-08-17T08:04:14.391Z,14.80
2018-08-17T08:05:14.439Z,15.20
2018-08-17T08:06:14.477Z,12.10
2018-08-17T08:07:14.523Z,11.90
2018-08-17T08:08:14.560Z,13.40
2018-08-17T08:09:14.610Z,11.70
2018-08-17T08:10:14.647Z,14.00
2018-08-17T08:11:14.709Z,13.10
2018-08-17T08:12:14.729Z,13.40
2018-08-17T08:13:14.773Z,19.20
2018-08-17T08:14:14.815Z,14.20
2018-08-17T08:15:14.859Z,14.40
2018-08-17T08:16:14.900Z,14.60
2018-08-17T08:17:14.943Z,15.50
2018-08-17T08:18:14.983Z,14.10
2018-08-17T08:19:15.030Z,15.90
2018-08-17T08:20:15.137Z,14.10
2018-08-17T08:21:15.114Z,13.30
2018-08-17T08:22:15.160Z,12.40
2018-08-17T08:23:15.201Z,13.50
2018-08-17T08:24:15.242Z,13.20
2018-08-17T08:25:15.285Z,14.90
2018-08-17T08:26:15.330Z,12.80
2018-08-17T08:27:15.373Z,12.10
2018-08-17T08:28:15.413Z,13.60
2018-08-17T08:29:15.464Z,13.90
2018-08-17T08:30:15.498Z,14.30
2018-08-17T08:31:15.541Z,13.20
2018-08-17T08:32:15.585Z,12.80
2018-08-17T08:33:15.626Z,12.00
2018-08-17T08:34:15.671Z,13.70
2018-08-17T08:35:15.713Z,13.00
2018-08-17T08:36:15.756Z,13.00
2018-08-17T08:37:15.805Z,13.40
2018-08-17T08:38:15.841Z,14.40
2018-08-17T08:39:15.893Z,12.70
2018-08-17T08:40:15.928Z,14.20
2018-08-17T08:41:15.972Z,13.00
2018-08-17T08:42:16.013Z,13.00
2018-08-17T08:43:16.057Z,13.60
2018-08-17T08:44:16.111Z,12.80
2018-08-17T08:45:16.143Z,13.80
2018-08-17T08:46:16.188Z,12.30
2018-08-17T08:47:16.230Z,12.30
2018-08-17T08:48:16.287Z,12.80
2018-08-17T08:49:16.317Z,13.50
2018-08-17T08:50:16.357Z,11.70
2018-08-17T08:51:16.411Z,13.30
2018-08-17T08:52:16.447Z,12.00
2018-08-17T08:53:16.489Z,11.80
2018-08-17T08:54:16.539Z,11.30
2018-08-17T08:55:16.574Z,11.60
2018-08-17T08:56:16.618Z,12.30
2018-08-17T08:57:16.666Z,15.70
2018-08-17T08:58:16.703Z,12.30
2018-08-17T08:59:16.747Z,11.50
2018-08-17T09:00:16.792Z,11.50
2018-08-17T09:01:16.836Z,11.70
2018-08-17T09:02:16.887Z,13.30
2018-08-17T09:03:16.923Z,16.00
2018-08-17T09:04:16.965Z,12.70
2018-08-17T09:05:17.008Z,13.50
2018-08-17T09:06:17.051Z,14.20
2018-08-17T09:07:17.098Z,14.10
2018-08-17T09:08:17.223Z,13.60
2018-08-17T09:09:17.184Z,14.20
2018-08-17T09:10:17.228Z,11.90
2018-08-17T09:11:17.279Z,14.60
2018-08-17T09:12:17.314Z,14.50
2018-08-17T09:13:17.359Z,13.20
2018-08-17T09:14:17.402Z,15.10
2018-08-17T09:15:17.448Z,14.10
2018-08-17T09:16:17.490Z,12.40
2018-08-17T09:17:17.534Z,12.30
2018-08-17T09:18:17.578Z,12.60
2018-08-17T09:19:17.623Z,12.50
2018-08-17T09:20:17.749Z,13.30
2018-08-17T09:21:17.709Z,13.40
2018-08-17T09:22:17.752Z,12.00
2018-08-17T09:23:17.796Z,12.20
2018-08-17T09:24:17.840Z,13.30
2018-08-17T09:25:17.883Z,15.30
2018-08-17T09:26:17.927Z,16.90
2018-08-17T09:27:17.973Z,15.50
2018-08-17T09:28:18.014Z,14.70
2018-08-17T09:29:18.194Z,16.40
2018-08-17T09:30:18.182Z,13.80
2018-08-17T09:31:18.148Z,12.50
2018-08-17T09:32:18.192Z,14.30
2018-08-17T09:33:18.235Z,13.40
2018-08-17T09:34:18.281Z,12.30
2018-08-17T09:35:18.323Z,12.20
2018-08-17T09:36:18.365Z,13.00
2018-08-17T09:37:18.463Z,15.60
2018-08-17T09:38:18.457Z,12.30
2018-08-17T09:39:18.503Z,12.20
2018-08-17T09:40:18.555Z,14.50
2018-08-17T09:41:18.589Z,12.60
2018-08-17T09:42:18.630Z,12.10
2018-08-17T09:43:18.686Z,13.40
2018-08-17T09:44:18.718Z,13.70
2018-08-17T09:45:18.761Z,13.20
2018-08-17T09:46:18.846Z,14.40
2018-08-17T09:47:18.851Z,14.00
2018-08-17T09:48:18.903Z,14.60
2018-08-17T09:49:19.849Z,14.30
2018-08-17T09:50:18.984Z,12.90
2018-08-17T09:51:19.102Z,12.90
2018-08-17T09:52:19.068Z,12.80
2018-08-17T09:53:19.121Z,13.90
2018-08-17T09:54:19.165Z,13.30
2018-08-17T09:55:19.200Z,12.60
2018-08-17T09:56:19.243Z,12.70
2018-08-17T09:57:19.390Z,14.40
2018-08-17T09:58:19.384Z,13.60
2018-08-17T09:59:19.375Z,13.70
2018-08-17T10:00:19.421Z,15.00
2018-08-17T10:01:19.477Z,13.50
2018-08-17T10:02:19.508Z,14.30
2018-08-17T10:03:19.550Z,16.40
2018-08-17T10:04:19.641Z,13.30
2018-08-17T10:05:19.661Z,15.40
2018-08-17T10:06:19.728Z,14.20
2018-08-17T10:07:19.725Z,13.20
2018-08-17T10:08:19.768Z,13.40
2018-08-17T10:09:19.812Z,13.70
2018-08-17T10:10:19.854Z,13.00
2018-08-17T10:11:19.899Z,12.40
2018-08-17T10:12:19.942Z,13.50
2018-08-17T10:13:19.985Z,12.60
2018-08-17T10:14:20.036Z,13.30
2018-08-17T10:15:20.072Z,13.50
2018-08-17T10:16:20.117Z,13.70
2018-08-17T10:17:20.160Z,14.00
2018-08-17T10:18:20.205Z,13.70
2018-08-17T10:19:20.245Z,13.70
2018-08-17T10:20:20.291Z,14.10
2018-08-17T10:21:20.678Z,16.10
2018-08-17T10:22:20.381Z,15.20
2018-08-17T10:23:20.419Z,11.90
2018-08-17T10:24:20.461Z,12.40
2018-08-17T10:25:20.507Z,12.50
2018-08-17T10:26:20.558Z,12.00
2018-08-17T10:27:20.597Z,14.10
2018-08-17T10:28:20.639Z,13.50
2018-08-17T10:29:20.690Z,13.80
2018-08-17T10:30:20.726Z,13.10
2018-08-17T10:31:20.778Z,12.90
2018-08-17T10:32:20.813Z,11.30
2018-08-17T10:33:20.855Z,14.30
2018-08-17T10:34:20.900Z,11.20
2018-08-17T10:35:20.950Z,13.40
2018-08-17T10:36:20.994Z,10.70
2018-08-17T10:37:21.031Z,11.10
2018-08-17T10:38:21.075Z,13.90
2018-08-17T10:39:21.129Z,16.30
2018-08-17T10:40:21.160Z,15.90
2018-08-17T10:41:21.206Z,12.70
2018-08-17T10:42:21.248Z,13.50
2018-08-17T10:43:21.293Z,15.00
2018-08-17T10:44:21.334Z,14.70
2018-08-17T10:45:21.379Z,14.50
2018-08-17T10:46:21.436Z,14.30
2018-08-17T10:47:21.466Z,13.30
2018-08-17T10:48:21.511Z,13.10
2018-08-17T10:49:21.554Z,12.90
2018-08-17T10:50:21.600Z,14.10
2018-08-17T10:51:21.647Z,13.00
2018-08-17T10:52:21.690Z,11.40
2018-08-17T10:53:21.737Z,12.20
2018-08-17T10:54:21.776Z,11.20
2018-08-17T10:55:21.838Z,13.30
2018-08-17T10:56:21.860Z,12.40
2018-08-17T10:57:21.972Z,14.50
2018-08-17T10:58:21.947Z,13.30
2018-08-17T10:59:21.992Z,13.10
2018-08-17T11:00:22.035Z,16.70
2018-08-17T11:01:22.077Z,12.40
2018-08-17T11:02:22.122Z,13.20
2018-08-17T11:03:22.167Z,14.30
2018-08-17T11:04:22.217Z,11.20
2018-08-17T11:05:22.254Z,10.70
2018-08-17T11:06:22.298Z,13.90
2018-08-17T11:07:22.341Z,11.00
2018-08-17T11:08:22.386Z,11.80
2018-08-17T11:09:22.430Z,11.70
2018-08-17T11:10:22.472Z,10.30
2018-08-17T11:11:22.527Z,10.70
2018-08-17T11:12:22.562Z,12.70
2018-08-17T11:13:22.653Z,11.90
2018-08-17T11:14:22.669Z,13.20
2018-08-17T11:15:22.693Z,12.70
2018-08-17T11:16:22.734Z,13.30
2018-08-17T11:17:22.779Z,11.70
2018-08-17T11:18:22.823Z,11.30
2018-08-17T11:19:22.867Z,10.40
2018-08-17T11:20:22.910Z,12.10
2018-08-17T11:21:22.954Z,12.20
2018-08-17T11:22:23.000Z,11.30
2018-08-17T11:23:23.043Z,13.10
2018-08-17T11:24:23.090Z,11.10
2018-08-17T11:25:23.132Z,11.50
2018-08-17T11:26:23.175Z,9.40
2018-08-17T11:27:23.220Z,10.00
2018-08-17T11:28:23.269Z,11.10
2018-08-17T11:29:23.317Z,10.10
2018-08-17T11:30:23.360Z,10.60
2018-08-17T11:31:23.399Z,10.10
2018-08-17T11:32:23.438Z,10.30
2018-08-17T11:33:23.484Z,11.50
2018-08-17T11:34:23.596Z,11.10
2018-08-17T11:35:23.571Z,9.80
2018-08-17T11:36:23.614Z,11.80
2018-08-17T11:37:23.659Z,10.50
2018-08-17T11:38:23.713Z,10.50
2018-08-17T11:39:23.746Z,12.50
2018-08-17T11:40:23.798Z,10.00
2018-08-17T11:41:23.869Z,10.20
2018-08-17T11:42:23.889Z,10.10
2018-08-17T11:43:23.923Z,9.30
2018-08-17T11:44:23.970Z,10.40
2018-08-17T11:45:24.017Z,10.20
2018-08-17T11:46:24.054Z,13.30
2018-08-17T11:47:24.099Z,10.90
2018-08-17T11:48:24.143Z,11.10
2018-08-17T11:49:24.190Z,11.30
2018-08-17T11:50:24.741Z,10.20
2018-08-17T11:51:24.279Z,10.20
2018-08-17T11:52:24.318Z,8.70
2018-08-17T11:53:24.365Z,9.20
2018-08-17T11:54:24.408Z,10.20
2018-08-17T11:55:24.455Z,9.90
2018-08-17T11:56:24.547Z,9.70
2018-08-17T11:57:24.548Z,10.20
2018-08-17T11:58:24.585Z,10.00
2018-08-17T11:59:24.629Z,9.50
2018-08-17T12:00:24.687Z,10.50
2018-08-17T12:01:24.717Z,9.50
2018-08-17T12:02:24.770Z,11.70
2018-08-17T12:03:24.806Z,9.30
2018-08-17T12:04:24.853Z,10.90
2018-08-17T12:05:24.892Z,9.10
2018-08-17T12:06:24.936Z,9.60
2018-08-17T12:07:24.992Z,10.00
2018-08-17T12:08:25.053Z,10.40
2018-08-17T12:09:25.071Z,8.30
2018-08-17T12:10:25.116Z,9.30
2018-08-17T12:11:25.160Z,8.30
2018-08-17T12:12:25.201Z,8.60
2018-08-17T12:13:25.258Z,8.20
2018-08-17T12:14:25.293Z,8.90
2018-08-17T12:15:25.338Z,8.20
2018-08-17T12:16:25.380Z,8.40
2018-08-17T12:17:25.426Z,9.20
2018-08-17T12:18:25.471Z,8.20
2018-08-17T12:19:25.519Z,8.70
2018-08-17T12:20:25.566Z,8.30
2018-08-17T12:21:25.601Z,8.80
2018-08-17T12:22:25.647Z,9.10
2018-08-17T12:23:25.693Z,9.40
2018-08-17T12:24:25.812Z,8.30
2018-08-17T12:25:25.788Z,8.60
2018-08-17T12:26:25.830Z,7.60
2018-08-17T12:27:25.871Z,9.10
2018-08-17T12:28:25.925Z,7.80
2018-08-17T12:29:25.959Z,9.10
2018-08-17T12:30:26.007Z,7.60
2018-08-17T12:31:26.048Z,7.90
2018-08-17T12:32:26.099Z,10.40
2018-08-17T12:33:26.135Z,7.80
2018-08-17T12:34:26.180Z,7.80
2018-08-17T12:35:26.223Z,7.40
2018-08-17T12:36:26.277Z,7.60
2018-08-17T12:37:26.313Z,8.70
2018-08-17T12:38:26.357Z,8.00
2018-08-17T12:39:26.405Z,9.50
2018-08-17T12:40:26.447Z,7.70
2018-08-17T12:41:26.510Z,8.50
2018-08-17T12:42:26.536Z,7.90
2018-08-17T12:43:26.582Z,8.30
2018-08-17T12:44:26.625Z,8.10
2018-08-17T12:45:26.679Z,8.30
2018-08-17T12:46:26.752Z,6.80
2018-08-17T12:47:26.761Z,7.50
2018-08-17T12:48:26.803Z,6.80
2018-08-17T12:49:26.858Z,7.30
2018-08-17T12:50:26.894Z,8.10
2018-08-17T12:51:26.945Z,8.90
2018-08-17T12:52:27.116Z,7.50
2018-08-17T12:53:27.027Z,6.60
2018-08-17T12:54:27.072Z,6.60
2018-08-17T12:55:27.117Z,7.70
2018-08-17T12:56:27.162Z,8.00
2018-08-17T12:57:27.225Z,8.40
2018-08-17T12:58:27.253Z,9.60
2018-08-17T12:59:27.298Z,8.40